Terminal Aerodrome Forecast
Issued by NWS Huntsville, AL

Home | Current Version | Previous Version | Text Only | Print | Product List | Glossary On
Versions: 1 2 3 4 5 6 7 8 9 10 11 12 13 14 15 16 17 18 19 20 21 22 23 24 25 26
000
FTUS44 KHUN 232343 CCA
TAFMSL
TAF COR
KMSL 232343Z 2400/2424 17012G20KT P6SM VCSH SCT025 BKN040 OVC070
     FM240200 20012G20KT P6SM BKN025 OVC040
     FM241200 22012G20KT P6SM VCSH BKN025 OVC040
     FM241500 26010KT P6SM SCT035 SCT250=

USA.gov is the U.S. government's official web portal to all federal, state and local government web resources and services.